Time;durP1;ratioP1;P1;durP2;ratioP2;P2;SDS_P1;SDS_P2;PMS_P1;PMS_P2;Temp;Humidity;BMP_temperature;BMP_pressure;BME280_temperature;BME280_humidity;BME280_pressure;Samples;Min_cycle;Max_cycle;Signal;HPM_P1;HPM_P2
2022/06/01 00:01:51;;;;;;;6.77;6.07;;;;;;;14.61;96.53;99337.44;5034116;28;20034;-79
2022/06/01 00:04:17;;;;;;;7.20;6.13;;;;;;;14.55;97.95;99340.47;5034234;28;20039;-79
2022/06/01 00:06:43;;;;;;;6.55;5.95;;;;;;;14.56;98.47;99336.91;5033928;28;20029;-79
2022/06/01 00:09:08;;;;;;;7.22;5.60;;;;;;;14.47;99.58;99330.47;5034087;28;20033;-79
2022/06/01 00:11:34;;;;;;;7.53;6.10;;;;;;;14.48;100.00;99348.75;5033741;28;20033;-79
2022/06/01 00:13:59;;;;;;;8.32;5.97;;;;;;;14.44;100.00;99344.63;5034438;28;20033;-79
2022/06/01 00:16:25;;;;;;;7.75;5.93;;;;;;;14.40;100.00;99342.31;5034057;28;20048;-79
2022/06/01 00:18:50;;;;;;;8.25;6.25;;;;;;;14.31;100.00;99330.66;5033884;28;20041;-79
2022/06/01 00:21:15;;;;;;;8.60;6.78;;;;;;;14.28;100.00;99312.53;5015910;28;20029;-79
2022/06/01 00:23:41;;;;;;;9.23;6.57;;;;;;;14.20;100.00;99294.72;5033307;28;20049;-79
2022/06/01 00:26:06;;;;;;;8.63;7.47;;;;;;;14.22;100.00;99307.72;5015936;28;20037;-79
2022/06/01 00:28:32;;;;;;;8.13;6.97;;;;;;;14.15;100.00;99298.56;5033891;28;20080;-79
2022/06/01 00:30:59;;;;;;;9.98;7.57;;;;;;;14.02;100.00;99288.09;5033630;28;20059;-79
2022/06/01 00:33:25;;;;;;;8.45;7.30;;;;;;;14.03;100.00;99295.03;5011269;28;20252;-79
2022/06/01 00:35:50;;;;;;;8.18;7.28;;;;;;;13.94;100.00;99279.91;5011404;28;20045;-79
2022/06/01 00:38:16;;;;;;;8.00;7.18;;;;;;;13.90;100.00;99260.09;5011255;28;20516;-79
2022/06/01 00:40:42;;;;;;;8.07;6.70;;;;;;;13.91;100.00;99265.25;4994593;28;20545;-78
2022/06/01 00:43:23;;;;;;;7.40;6.38;;;;;;;13.87;100.00;99255.91;5011235;28;20173;-79
2022/06/01 00:45:49;;;;;;;8.73;6.57;;;;;;;13.89;100.00;99271.50;5011203;28;20109;-79
2022/06/01 00:48:14;;;;;;;9.02;6.70;;;;;;;13.89;100.00;99274.13;4994634;28;20044;-79
2022/06/01 00:50:43;;;;;;;6.25;5.65;;;;;;;13.85;100.00;99270.03;4994294;28;20034;-79
2022/06/01 00:53:15;;;;;;;7.40;6.00;;;;;;;13.84;100.00;99273.59;5011015;28;20103;-79
2022/06/01 00:55:44;;;;;;;9.85;5.85;;;;;;;13.82;100.00;99284.19;5010455;28;20141;-79
2022/06/01 00:58:18;;;;;;;8.85;5.20;;;;;;;13.85;100.00;99280.50;4994246;28;20041;-79
2022/06/01 01:00:45;;;;;;;6.13;5.53;;;;;;;13.87;100.00;99297.81;4994158;28;20473;-79
2022/06/01 01:03:13;;;;;;;6.20;5.60;;;;;;;13.90;100.00;99305.44;4994412;28;20060;-79
2022/06/01 01:05:43;;;;;;;5.78;4.85;;;;;;;13.92;100.00;99300.13;5014937;28;20228;-79
2022/06/01 01:08:09;;;;;;;4.97;4.40;;;;;;;13.95;100.00;99310.41;5015390;28;20389;-79
2022/06/01 01:10:35;;;;;;;4.90;4.40;;;;;;;13.95;100.00;99310.41;5033035;28;20033;-79
2022/06/01 01:13:04;;;;;;;5.35;4.40;;;;;;;13.95;100.00;99308.63;5015098;28;20029;-79
2022/06/01 01:15:40;;;;;;;4.65;4.25;;;;;;;14.02;100.00;99323.91;5015066;28;20034;-79
2022/06/01 01:18:13;;;;;;;6.82;4.45;;;;;;;14.00;100.00;99318.78;5014773;28;20021;-79
2022/06/01 01:21:01;;;;;;;4.68;4.10;;;;;;;13.97;100.00;99311.13;5032641;28;20029;-78
2022/06/01 01:24:04;;;;;;;4.45;4.00;;;;;;;14.00;100.00;99304.84;5032689;28;20021;-79
2022/06/01 01:26:32;;;;;;;6.90;4.68;;;;;;;13.93;100.00;99283.47;5032485;28;20036;-79
2022/06/01 01:28:58;;;;;;;6.18;4.43;;;;;;;13.93;100.00;99273.81;5032303;28;20022;-79
2022/06/01 01:31:25;;;;;;;4.95;4.43;;;;;;;13.92;100.00;99272.16;5015007;28;20362;-79
2022/06/01 01:33:55;;;;;;;4.40;4.00;;;;;;;13.93;100.00;99278.22;5031630;28;20029;-79
2022/06/01 01:36:40;;;;;;;5.55;4.30;;;;;;;13.89;100.00;99267.09;5014726;28;20022;-79
2022/06/01 01:39:07;;;;;;;4.45;4.00;;;;;;;13.90;100.00;99263.53;5014640;28;20481;-79
2022/06/01 01:41:38;;;;;;;5.32;3.95;;;;;;;13.88;100.00;99265.44;5014815;28;20033;-79
2022/06/01 01:44:28;;;;;;;4.53;3.53;;;;;;;13.85;100.00;99264.81;5032156;28;20109;-79
2022/06/01 01:46:56;;;;;;;4.32;3.47;;;;;;;13.78;100.00;99266.13;5032188;28;20034;-79
2022/06/01 01:49:30;;;;;;;5.13;3.33;;;;;;;13.75;100.00;99263.75;5032106;28;20049;-79
2022/06/01 01:52:00;;;;;;;3.05;2.75;;;;;;;13.80;100.00;99261.66;5014409;28;20472;-79
2022/06/01 01:54:42;;;;;;;5.50;3.17;;;;;;;13.71;100.00;99250.84;5014189;28;20056;-79
2022/06/01 01:57:45;;;;;;;4.05;3.33;;;;;;;13.73;100.00;99267.28;5014364;28;20247;-79
2022/06/01 02:00:34;;;;;;;3.42;3.08;;;;;;;13.60;100.00;99237.63;5014603;28;20386;-79
2022/06/01 02:03:23;;;;;;;3.78;2.75;;;;;;;13.58;100.00;99246.53;5031935;28;20025;-79
2022/06/01 02:06:12;;;;;;;3.42;3.13;;;;;;;13.57;100.00;99247.44;5032121;28;20546;-79
2022/06/01 02:08:41;;;;;;;4.07;3.28;;;;;;;13.51;100.00;99243.47;5032193;28;20108;-79
2022/06/01 02:14:25;;;;;;;3.20;2.78;;;;;;;13.39;100.00;99250.31;5031781;28;20071;-79
2022/06/01 02:17:08;;;;;;;2.83;2.58;;;;;;;13.32;100.00;99251.66;5032040;28;20029;-79
2022/06/01 02:19:42;;;;;;;3.28;2.97;;;;;;;13.28;100.00;99250.19;5014272;28;20381;-79
2022/06/01 02:22:10;;;;;;;3.90;3.50;;;;;;;13.13;100.00;99238.88;5014120;28;20528;-79
2022/06/01 02:24:37;;;;;;;3.58;3.10;;;;;;;13.14;100.00;99244.94;5031851;28;20072;-79
2022/06/01 02:27:03;;;;;;;3.55;3.25;;;;;;;13.03;100.00;99243.03;5012307;28;20048;-79
2022/06/01 02:29:43;;;;;;;3.35;3.05;;;;;;;13.01;100.00;99252.72;5012682;28;20439;-79
2022/06/01 02:32:11;;;;;;;3.33;3.03;;;;;;;12.92;100.00;99254.16;5012919;28;20091;-79
2022/06/01 02:34:38;;;;;;;4.05;3.30;;;;;;;12.83;100.00;99240.81;5012718;28;20838;-79
2022/06/01 02:37:06;;;;;;;3.22;2.92;;;;;;;12.86;100.00;99248.47;5029136;28;20052;-79
2022/06/01 02:39:33;;;;;;;3.70;3.40;;;;;;;12.79;100.00;99248.00;5012497;28;20515;-79
2022/06/01 02:44:58;;;;;;;3.05;2.80;;;;;;;12.67;100.00;99249.59;5029712;28;20068;-79
2022/06/01 02:47:24;;;;;;;3.72;3.30;;;;;;;12.60;100.00;99234.38;5016529;28;20550;-79
2022/06/01 02:49:50;;;;;;;4.07;3.47;;;;;;;12.55;100.00;99239.06;5032933;28;20045;-79
2022/06/01 02:52:16;;;;;;;6.22;2.97;;;;;;;12.52;100.00;99244.50;5016584;28;20052;-79
2022/06/01 02:54:41;;;;;;;3.70;3.20;;;;;;;12.45;100.00;99238.78;5016250;28;20053;-79
2022/06/01 02:57:07;;;;;;;4.47;3.75;;;;;;;12.43;100.00;99238.03;5016295;28;20029;-79
2022/06/01 02:59:33;;;;;;;3.60;3.30;;;;;;;12.38;100.00;99240.94;5017580;28;20029;-79
2022/06/01 03:01:59;;;;;;;3.75;3.45;;;;;;;12.31;100.00;99244.88;5035388;28;20036;-79
2022/06/01 03:04:25;;;;;;;3.70;3.35;;;;;;;12.23;100.00;99234.88;5017373;28;20510;-79
2022/06/01 03:06:50;;;;;;;3.10;2.90;;;;;;;12.19;100.00;99241.22;5035462;28;20095;-79
2022/06/01 03:09:15;;;;;;;5.30;3.10;;;;;;;12.17;100.00;99247.44;5035374;28;20029;-79
2022/06/01 03:11:41;;;;;;;3.47;3.15;;;;;;;12.14;100.00;99248.47;5035617;28;20029;-79
2022/06/01 03:14:06;;;;;;;4.53;3.38;;;;;;;12.16;100.00;99240.53;5017251;28;20477;-79
2022/06/01 03:16:32;;;;;;;4.18;3.10;;;;;;;12.17;100.00;99235.22;5017182;28;20390;-79
2022/06/01 03:18:57;;;;;;;6.03;3.55;;;;;;;12.16;100.00;99227.50;5016927;28;20033;-79
2022/06/01 03:21:22;;;;;;;4.28;3.55;;;;;;;12.22;100.00;99240.19;5017389;28;20556;-79
2022/06/01 03:23:48;;;;;;;3.83;3.53;;;;;;;12.21;100.00;99241.94;5034824;28;20063;-79
2022/06/01 03:26:13;;;;;;;3.67;3.38;;;;;;;12.13;100.00;99230.28;5017208;28;20084;-79
2022/06/01 03:28:39;;;;;;;4.10;3.63;;;;;;;12.18;100.00;99242.16;5017144;28;20056;-79
2022/06/01 03:31:08;;;;;;;4.88;3.80;;;;;;;12.20;100.00;99244.66;5016877;28;20116;-79
2022/06/01 03:33:37;;;;;;;3.78;3.30;;;;;;;12.17;100.00;99244.81;5034707;28;20039;-79
2022/06/01 03:36:04;;;;;;;4.10;3.70;;;;;;;12.11;100.00;99242.59;5034604;28;20022;-79
2022/06/01 03:38:29;;;;;;;4.28;3.75;;;;;;;12.13;100.00;99244.16;5034743;28;20044;-79
2022/06/01 03:40:54;;;;;;;4.22;3.78;;;;;;;12.12;100.00;99246.88;5034422;28;20026;-79
2022/06/01 03:43:20;;;;;;;4.65;3.75;;;;;;;12.16;100.00;99246.59;5034893;28;20104;-79
2022/06/01 03:46:02;;;;;;;5.50;3.72;;;;;;;12.18;100.00;99246.53;5034585;28;20025;-79
2022/06/01 03:48:32;;;;;;;4.75;3.92;;;;;;;12.25;100.00;99250.44;5034653;28;20037;-79
2022/06/01 03:50:59;;;;;;;5.38;4.63;;;;;;;12.31;100.00;99242.25;5016320;28;20120;-79
2022/06/01 03:53:25;;;;;;;6.68;4.60;;;;;;;12.40;100.00;99244.31;5016803;28;20120;-79
2022/06/01 03:55:52;;;;;;;4.60;4.20;;;;;;;12.42;100.00;99238.97;5034048;28;20045;-79
2022/06/01 03:58:23;;;;;;;5.20;4.60;;;;;;;12.62;100.00;99248.22;5033444;28;20465;-79
2022/06/01 04:00:49;;;;;;;4.95;4.13;;;;;;;12.63;100.00;99240.28;5016283;28;20037;-79
2022/06/01 04:03:16;;;;;;;4.38;3.95;;;;;;;12.89;100.00;99259.59;5016603;28;20021;-79
2022/06/01 04:05:41;;;;;;;5.03;4.30;;;;;;;13.11;100.00;99253.84;5034625;28;20025;-79
2022/06/01 04:08:07;;;;;;;4.70;4.30;;;;;;;13.54;100.00;99247.66;5016206;28;20036;-79
2022/06/01 04:10:34;;;;;;;4.57;4.18;;;;;;;14.10;100.00;99248.28;5034121;28;20112;-79
2022/06/01 04:13:00;;;;;;;4.53;4.13;;;;;;;14.93;100.00;99260.00;5016078;28;20053;-79
2022/06/01 04:15:26;;;;;;;4.35;3.70;;;;;;;15.91;100.00;99262.56;5016088;28;20061;-79
2022/06/01 04:17:51;;;;;;;6.30;3.65;;;;;;;17.54;100.00;99248.09;5033810;28;20441;-79
2022/06/01 04:20:17;;;;;;;4.43;3.15;;;;;;;19.62;96.21;99264.53;5034305;28;20034;-79
2022/06/01 04:22:43;;;;;;;3.00;2.70;;;;;;;21.29;85.27;99267.44;5033940;28;20598;-79
2022/06/01 04:25:12;;;;;;;3.22;2.75;;;;;;;21.83;79.97;99282.41;5015846;28;20068;-79
2022/06/01 04:27:38;;;;;;;3.42;2.85;;;;;;;21.07;81.78;99274.81;5034028;28;20042;-79
2022/06/01 04:30:09;;;;;;;5.80;3.20;;;;;;;20.42;83.93;99292.41;5033608;28;20033;-79
2022/06/01 04:32:34;;;;;;;;;;;;;;;19.91;87.14;99286.50;5016411;28;20021;-79
2022/06/01 04:35:01;;;;;;;2.80;2.60;;;;;;;19.62;88.88;99293.59;5033475;28;19999;-79
2022/06/01 04:37:26;;;;;;;3.10;2.65;;;;;;;19.66;88.43;99285.25;5033453;28;20144;-79
2022/06/01 04:39:52;;;;;;;7.05;2.70;;;;;;;20.26;85.58;99290.34;5033303;28;20416;-79
2022/06/01 04:42:18;;;;;;;3.80;2.80;;;;;;;21.84;78.77;99286.72;5033432;28;20548;-79
2022/06/01 04:44:43;;;;;;;4.70;2.80;;;;;;;23.72;70.79;99286.91;5033369;28;20503;-79
2022/06/01 04:47:10;;;;;;;5.20;3.00;;;;;;;25.05;65.05;99288.22;5033174;28;20136;-79
2022/06/01 04:49:35;;;;;;;3.60;3.15;;;;;;;25.05;62.76;99288.22;5033687;28;20034;-79
2022/06/01 04:52:01;;;;;;;4.60;3.22;;;;;;;23.96;65.14;99297.56;5033325;28;20104;-79
2022/06/01 04:54:26;;;;;;;4.43;3.28;;;;;;;22.86;69.54;99298.56;5033306;28;20538;-79
2022/06/01 04:56:52;;;;;;;15.63;4.50;;;;;;;22.28;72.22;99286.75;5032887;28;20036;-79
2022/06/01 04:59:17;;;;;;;6.45;3.45;;;;;;;21.85;74.15;99285.72;5033353;28;20393;-79
2022/06/01 05:01:44;;;;;;;25.33;3.50;;;;;;;21.77;74.07;99292.78;5033525;28;20026;-79
2022/06/01 05:04:09;;;;;;;18.38;4.70;;;;;;;22.31;72.48;99283.78;5032767;28;20029;-79
2022/06/01 05:06:35;;;;;;;3.78;2.85;;;;;;;24.10;66.53;99282.75;5033291;28;20128;-79
2022/06/01 05:09:00;;;;;;;3.40;3.10;;;;;;;26.10;59.72;99275.28;5014911;28;20040;-79
2022/06/01 05:11:25;;;;;;;3.63;2.97;;;;;;;27.14;54.08;99278.88;5032953;28;20025;-79
2022/06/01 05:13:51;;;;;;;7.63;3.65;;;;;;;26.95;52.62;99290.09;5032828;28;20465;-79
2022/06/01 05:16:16;;;;;;;4.07;3.05;;;;;;;25.79;54.61;99273.53;5015112;28;20066;-79
2022/06/01 05:18:42;;;;;;;3.88;2.97;;;;;;;24.86;57.04;99278.81;5033206;28;20385;-79
2022/06/01 05:21:07;;;;;;;2.90;2.60;;;;;;;24.06;59.88;99273.44;5032558;28;20109;-79
2022/06/01 05:23:32;;;;;;;4.32;3.20;;;;;;;23.70;61.32;99280.94;5032989;28;20053;-79
2022/06/01 05:25:59;;;;;;;4.55;2.75;;;;;;;23.78;60.97;99294.25;5032373;28;20614;-79
2022/06/01 05:28:29;;;;;;;4.18;2.70;;;;;;;24.78;59.29;99282.34;5032568;28;20060;-79
2022/06/01 05:30:59;;;;;;;6.18;2.78;;;;;;;26.85;52.81;99296.56;5032579;28;20021;-79
2022/06/01 05:33:24;;;;;;;3.45;2.85;;;;;;;28.63;48.58;99289.75;5032725;28;20087;-79
2022/06/01 05:35:50;;;;;;;3.15;2.75;;;;;;;28.92;43.73;99283.31;5032582;28;20025;-79
2022/06/01 05:38:15;;;;;;;3.97;2.40;;;;;;;27.96;45.16;99277.69;5032191;28;20033;-79
2022/06/01 05:40:41;;;;;;;3.83;2.80;;;;;;;26.96;48.00;99284.56;5032290;28;20113;-79
2022/06/01 05:43:12;;;;;;;3.72;2.50;;;;;;;26.32;50.08;99292.25;5032128;28;20026;-79
2022/06/01 05:45:38;;;;;;;3.92;3.00;;;;;;;25.86;50.48;99295.78;5014545;28;20025;-79
2022/06/01 05:48:05;;;;;;;3.33;2.63;;;;;;;25.48;51.15;99299.38;5032213;28;20496;-79
2022/06/01 05:50:30;;;;;;;4.75;2.67;;;;;;;25.28;52.49;99297.16;5032223;28;20056;-79
2022/06/01 05:52:55;;;;;;;3.92;2.75;;;;;;;25.37;52.52;99288.09;5014350;28;20132;-79
2022/06/01 05:55:21;;;;;;;4.13;2.78;;;;;;;25.29;52.16;99290.81;5014028;28;20103;-79
2022/06/01 05:57:46;;;;;;;4.63;2.72;;;;;;;25.34;52.45;99298.28;5032003;28;20025;-79
2022/06/01 06:00:12;;;;;;;4.15;2.67;;;;;;;25.39;52.48;99302.06;5031871;28;20113;-79
2022/06/01 06:02:39;;;;;;;3.50;2.80;;;;;;;25.55;52.21;99308.34;5032170;28;20108;-79
2022/06/01 06:06:11;;;;;;;3.30;2.97;;;;;;;25.66;51.26;99313.25;5014164;28;20072;-79
2022/06/01 06:07:51;;;;;;;4.63;2.92;;;;;;;25.79;50.63;99304.72;5031825;28;20068;-79
2022/06/01 06:10:17;;;;;;;4.05;2.53;;;;;;;25.98;49.31;99314.06;5031719;28;20552;-79
2022/06/01 06:12:42;;;;;;;4.10;2.92;;;;;;;26.00;48.49;99320.91;5032094;28;20112;-79
2022/06/01 06:15:09;;;;;;;4.05;3.05;;;;;;;26.10;48.01;99321.47;5014067;28;20021;-80
2022/06/01 06:17:35;;;;;;;3.83;2.88;;;;;;;26.25;47.91;99320.66;5031812;28;20109;-79
2022/06/01 06:20:00;;;;;;;3.03;2.60;;;;;;;26.22;47.92;99315.72;5031493;28;20457;-79
2022/06/01 06:22:26;;;;;;;4.13;2.53;;;;;;;26.57;47.66;99325.75;5032014;28;20473;-79
2022/06/01 06:24:51;;;;;;;5.38;2.88;;;;;;;26.92;47.05;99326.03;5032065;28;20065;-80
2022/06/01 06:27:17;;;;;;;12.68;3.85;;;;;;;27.44;45.85;99327.78;5032054;28;20080;-80
2022/06/01 06:29:42;;;;;;;4.97;2.90;;;;;;;28.90;42.60;99326.41;5014256;28;20662;-80
2022/06/01 06:32:08;;;;;;;5.05;2.85;;;;;;;32.03;35.71;99320.72;5031694;28;20033;-80
2022/06/01 06:34:33;;;;;;;5.05;2.30;;;;;;;35.09;29.96;99322.06;5031754;28;20026;-80
2022/06/01 06:36:58;;;;;;;4.78;2.10;;;;;;;37.75;25.33;99330.56;5031342;28;20026;-77
2022/06/01 06:39:24;;;;;;;10.88;2.67;;;;;;;39.89;21.84;99334.56;5032088;28;20049;-79
2022/06/01 06:41:49;;;;;;;6.90;2.58;;;;;;;41.33;20.15;99319.53;5014024;28;20052;-79
2022/06/01 06:44:15;;;;;;;6.47;2.60;;;;;;;42.63;19.18;99335.53;5031833;28;20030;-79
2022/06/01 06:46:40;;;;;;;2.58;2.13;;;;;;;43.65;17.15;99325.25;5031645;28;20021;-79
2022/06/01 06:49:06;;;;;;;4.40;2.53;;;;;;;44.37;16.08;99335.88;5031378;28;20083;-79
2022/06/01 06:51:31;;;;;;;4.05;2.40;;;;;;;45.17;15.18;99340.94;5031521;28;20431;-79
2022/06/01 06:53:56;;;;;;;2.50;2.20;;;;;;;45.98;14.77;99337.47;5013751;28;20083;-79
2022/06/01 06:56:22;;;;;;;2.70;2.10;;;;;;;46.51;14.17;99337.47;5031302;28;20025;-79
2022/06/01 06:58:49;;;;;;;2.13;1.92;;;;;;;46.86;13.66;99342.31;5031569;28;20025;-79
2022/06/01 07:01:15;;;;;;;2.03;1.85;;;;;;;46.94;13.32;99345.13;5013591;28;20025;-79
2022/06/01 07:03:40;;;;;;;2.10;1.95;;;;;;;47.06;13.28;99354.72;5031445;28;20475;-79
2022/06/01 07:06:09;;;;;;;1.90;1.80;;;;;;;47.60;12.76;99345.06;5031096;28;20033;-80
2022/06/01 07:08:34;;;;;;;;;;;;;;;47.84;12.24;99352.09;5032048;28;20030;-79
2022/06/01 07:11:00;;;;;;;3.13;1.60;;;;;;;48.11;12.14;99339.88;5031447;28;19909;-80
2022/06/01 07:13:29;;;;;;;2.60;1.73;;;;;;;48.64;12.14;99342.16;5031144;28;20100;-79
2022/06/01 07:16:09;;;;;;;2.97;1.85;;;;;;;48.99;11.70;99355.81;5031336;28;20500;-80
2022/06/01 07:18:38;;;;;;;2.38;1.90;;;;;;;48.39;11.66;99340.28;5013447;28;20412;-80
2022/06/01 07:21:04;;;;;;;1.90;1.77;;;;;;;48.05;12.56;99343.97;5013492;28;20040;-80
2022/06/01 07:23:29;;;;;;;2.80;1.77;;;;;;;47.05;12.90;99336.56;5013621;28;20028;-80
2022/06/01 07:25:55;;;;;;;2.15;1.90;;;;;;;47.48;12.88;99331.13;5013470;28;20029;-80
2022/06/01 07:28:22;;;;;;;2.03;1.88;;;;;;;47.35;12.95;99337.59;5013295;28;20513;-80
2022/06/01 07:30:50;;;;;;;2.63;1.83;;;;;;;48.20;12.29;99335.13;5031291;28;20101;-80
2022/06/01 07:33:18;;;;;;;2.03;1.80;;;;;;;49.32;11.81;99344.91;5033450;28;20021;-80
2022/06/01 07:35:44;;;;;;;1.70;1.60;;;;;;;48.05;11.71;99319.91;5034976;28;20033;-80
2022/06/01 07:43:41;;;;;;;2.17;1.52;;;;;;;50.32;10.87;99336.66;5034706;28;20040;-80
2022/06/01 07:46:08;;;;;;;1.73;1.60;;;;;;;50.81;10.48;99343.06;5034531;28;20053;-79
2022/06/01 07:48:34;;;;;;;1.70;1.60;;;;;;;50.99;9.65;99345.63;5016587;28;20075;-80
2022/06/01 07:50:59;;;;;;;1.75;1.65;;;;;;;50.40;10.27;99335.75;5016660;28;20030;-80
2022/06/01 07:53:25;;;;;;;2.17;1.52;;;;;;;50.35;10.10;99338.75;5034231;28;20381;-80
2022/06/01 07:55:50;;;;;;;1.63;1.50;;;;;;;50.44;10.14;99345.00;5016354;28;20661;-80
2022/06/01 07:58:16;;;;;;;2.40;1.50;;;;;;;50.41;9.85;99346.53;5034017;28;20033;-80
2022/06/01 08:00:42;;;;;;;3.33;1.38;;;;;;;50.15;9.96;99345.97;5030118;28;20032;-80
2022/06/01 08:03:14;;;;;;;1.60;1.50;;;;;;;49.91;10.07;99352.25;5036108;28;20043;-80
2022/06/01 08:05:40;;;;;;;1.73;1.63;;;;;;;49.85;10.08;99353.59;5036167;28;20021;-80
2022/06/01 08:08:06;;;;;;;2.10;1.55;;;;;;;49.82;10.05;99357.88;5035805;28;20029;-80
2022/06/01 08:10:32;;;;;;;2.15;1.73;;;;;;;48.77;10.54;99354.16;5035964;28;20083;-80
2022/06/01 08:13:06;;;;;;;1.90;1.80;;;;;;;47.60;10.93;99353.34;5036001;28;20447;-80
2022/06/01 08:15:47;;;;;;;1.67;1.58;;;;;;;42.21;14.42;99349.88;5053991;28;20021;-80
2022/06/01 08:18:16;;;;;;;2.78;1.50;;;;;;;37.86;17.83;99339.69;5035512;28;20032;-79
2022/06/01 08:20:42;;;;;;;2.28;1.90;;;;;;;34.63;20.73;99334.56;5054170;28;20056;-79
2022/06/01 08:23:08;;;;;;;2.28;1.83;;;;;;;32.61;23.49;99345.75;5053388;28;20391;-79
2022/06/01 08:25:35;;;;;;;2.90;1.80;;;;;;;31.17;25.14;99331.91;5035901;28;20112;-79
2022/06/01 08:28:01;;;;;;;1.85;1.58;;;;;;;30.08;26.02;99341.28;5011250;28;20092;-81
2022/06/01 08:30:29;;;;;;;2.00;1.80;;;;;;;29.02;27.05;99338.25;5011222;28;20480;-81
2022/06/01 08:32:55;;;;;;;1.80;1.60;;;;;;;28.09;29.04;99350.91;5011346;28;20070;-81
2022/06/01 08:35:27;;;;;;;2.38;1.80;;;;;;;27.51;30.34;99346.56;5011111;28;20029;-81
2022/06/01 08:37:52;;;;;;;1.75;1.65;;;;;;;27.19;31.44;99337.13;5011170;28;20042;-81
2022/06/01 08:40:21;;;;;;;1.60;1.50;;;;;;;26.87;31.94;99347.97;5010949;28;20129;-81
2022/06/01 08:43:01;;;;;;;2.08;1.88;;;;;;;26.51;32.51;99333.69;5010979;28;20042;-81
2022/06/01 08:45:28;;;;;;;2.55;1.90;;;;;;;26.34;32.71;99344.47;5011033;28;20038;-79
2022/06/01 08:47:54;;;;;;;1.73;1.63;;;;;;;26.16;33.11;99356.47;5011045;28;20037;-81
2022/06/01 08:50:30;;;;;;;2.65;2.13;;;;;;;25.96;33.27;99353.47;5010810;28;20036;-81
2022/06/01 08:52:58;;;;;;;4.22;1.85;;;;;;;25.69;33.55;99350.25;5011182;28;20069;-81
2022/06/01 08:55:27;;;;;;;1.95;1.75;;;;;;;25.61;34.64;99356.44;5010691;28;20041;-82
2022/06/01 08:58:10;;;;;;;2.25;2.05;;;;;;;25.52;35.31;99356.69;5012353;28;20318;-81
2022/06/01 09:00:54;;;;;;;3.95;2.30;;;;;;;25.27;35.12;99367.44;5052931;28;20037;-81
2022/06/01 09:03:29;;;;;;;5.57;2.10;;;;;;;25.16;34.85;99353.66;5053001;28;20025;-81
2022/06/01 09:06:04;;;;;;;2.83;2.10;;;;;;;25.09;34.20;99354.34;5053050;28;20536;-81
2022/06/01 09:09:14;;;;;;;2.38;1.70;;;;;;;25.11;34.58;99360.38;5034795;28;20032;-80
2022/06/01 09:11:45;;;;;;;2.40;2.10;;;;;;;25.19;35.15;99372.81;4994241;28;20045;-81
2022/06/01 09:14:13;;;;;;;1.77;1.67;;;;;;;25.26;35.09;99367.63;4994095;28;20037;-81
2022/06/01 09:16:42;;;;;;;2.15;1.95;;;;;;;25.20;34.58;99379.81;4994050;28;20058;-81
2022/06/01 09:19:14;;;;;;;1.92;1.83;;;;;;;25.10;34.79;99387.16;4994141;28;20030;-81
2022/06/01 09:24:29;;;;;;;1.70;1.60;;;;;;;25.07;33.59;99375.00;5010394;28;20095;-81
2022/06/01 09:27:05;;;;;;;1.90;1.77;;;;;;;25.04;33.16;99385.16;4993923;28;20026;-81
2022/06/01 09:29:42;;;;;;;2.40;1.50;;;;;;;24.94;33.70;99379.19;4993781;28;20038;-81
2022/06/01 09:32:33;;;;;;;1.77;1.55;;;;;;;24.85;33.83;99379.19;4990674;28;20090;-81
2022/06/01 09:35:02;;;;;;;2.10;1.90;;;;;;;24.69;34.98;99383.72;4990345;28;20436;-81
2022/06/01 09:37:33;;;;;;;3.40;2.33;;;;;;;24.62;37.30;99389.72;4990451;28;20034;-81
2022/06/01 09:40:18;;;;;;;2.63;2.13;;;;;;;24.54;38.25;99389.75;4974370;28;20038;-81
2022/06/01 09:42:49;;;;;;;2.65;1.95;;;;;;;24.30;37.86;99371.06;4974326;28;20034;-81
2022/06/01 09:45:21;;;;;;;3.25;2.20;;;;;;;24.41;37.99;99394.75;4990627;28;20042;-81
2022/06/01 09:47:47;;;;;;;2.10;2.00;;;;;;;24.35;38.30;99393.53;4979306;28;20545;-81
2022/06/01 09:50:44;;;;;;;2.10;2.00;;;;;;;24.69;38.39;99389.88;5012911;28;20068;-81
2022/06/01 09:53:20;;;;;;;2.45;2.25;;;;;;;24.87;37.10;99389.72;4971091;28;20145;-81
2022/06/01 09:56:00;;;;;;;2.72;2.00;;;;;;;24.72;38.17;99373.56;4953911;28;20467;-81
2022/06/01 10:07:06;;;;;;;2.35;2.15;;;;;;;24.92;37.26;99373.22;4990369;28;20637;-81
2022/06/01 10:09:34;;;;;;;2.45;2.25;;;;;;;24.78;36.61;99374.75;4990007;28;20449;-81
2022/06/01 10:12:46;;;;;;;1.80;1.70;;;;;;;24.68;36.99;99382.88;4974076;28;20034;-81
2022/06/01 10:15:44;;;;;;;2.00;1.90;;;;;;;24.47;37.30;99387.91;4951434;29;20507;-81
2022/06/01 10:18:18;;;;;;;2.47;1.80;;;;;;;24.30;37.09;99387.03;4935394;29;20028;-81
2022/06/01 10:20:56;;;;;;;3.05;2.28;;;;;;;24.02;36.90;99371.41;4951448;29;20477;-81
2022/06/01 10:23:48;;;;;;;2.35;2.08;;;;;;;23.96;38.43;99374.69;4935052;29;20479;-81
2022/06/01 10:26:31;;;;;;;2.75;2.40;;;;;;;24.00;38.21;99377.88;4935082;29;20109;-81
2022/06/01 10:29:04;;;;;;;2.67;2.10;;;;;;;23.96;37.80;99380.03;4961238;28;20054;-81
2022/06/01 10:31:38;;;;;;;2.50;2.15;;;;;;;23.90;37.95;99386.00;4973550;28;20026;-80
2022/06/01 10:34:17;;;;;;;6.47;2.40;;;;;;;23.78;37.51;99385.47;4973653;28;20030;-81
2022/06/01 10:36:58;;;;;;;5.82;2.05;;;;;;;23.73;37.63;99379.81;4989882;28;20108;-80
2022/06/01 10:39:38;;;;;;;1.90;1.80;;;;;;;23.89;37.02;99373.69;4973217;28;20038;-81
2022/06/01 10:42:04;;;;;;;2.45;2.00;;;;;;;23.94;37.06;99391.84;4973591;28;20033;-81
2022/06/01 10:44:51;;;;;;;2.13;1.92;;;;;;;23.92;37.08;99391.16;4989684;28;20031;-81
2022/06/01 10:47:46;;;;;;;2.30;2.10;;;;;;;23.90;36.65;99380.69;4989705;28;20542;-81
2022/06/01 10:50:19;;;;;;;2.30;2.10;;;;;;;24.02;37.44;99384.72;4989868;28;20034;-81
2022/06/01 10:53:13;;;;;;;2.38;2.13;;;;;;;24.11;36.80;99389.03;5022040;28;20392;-80
2022/06/01 10:55:42;;;;;;;1.98;1.80;;;;;;;24.16;36.39;99388.53;5033150;28;20049;-81
2022/06/01 10:58:21;;;;;;;2.45;1.90;;;;;;;24.35;35.63;99379.38;5033552;28;20080;-81
2022/06/01 11:00:55;;;;;;;2.35;2.00;;;;;;;24.55;34.64;99372.75;5033588;28;20033;-81
2022/06/01 11:03:36;;;;;;;2.38;1.98;;;;;;;24.47;33.44;99377.25;5051133;28;20025;-81
2022/06/01 11:06:19;;;;;;;2.88;1.80;;;;;;;24.41;33.55;99362.78;5034254;28;20064;-81
2022/06/01 11:09:07;;;;;;;2.22;1.48;;;;;;;24.36;34.08;99371.25;5055223;28;20029;-81
2022/06/01 11:11:47;;;;;;;3.90;1.63;;;;;;;24.35;32.80;99366.91;5054945;28;20025;-81
2022/06/01 11:14:41;;;;;;;2.10;1.90;;;;;;;24.28;32.56;99365.94;5055077;28;20021;-81
2022/06/01 11:17:19;;;;;;;2.55;1.90;;;;;;;24.30;33.30;99371.06;4976845;28;20038;-81
2022/06/01 11:20:25;;;;;;;3.50;1.90;;;;;;;24.39;33.31;99370.94;4993214;28;20082;-81
2022/06/01 11:23:05;;;;;;;5.75;1.98;;;;;;;24.33;32.41;99370.75;4993185;28;20039;-81
2022/06/01 11:25:40;;;;;;;15.45;2.90;;;;;;;24.24;32.82;99369.91;4993021;28;20034;-81
2022/06/01 11:28:48;;;;;;;4.63;1.83;;;;;;;24.33;32.52;99374.25;4993461;28;20046;-81
2022/06/01 11:31:22;;;;;;;1.85;1.75;;;;;;;24.32;33.59;99367.25;4993406;28;20109;-80
2022/06/01 11:34:13;;;;;;;1.90;1.60;;;;;;;24.39;34.19;99376.25;4993068;28;20117;-81
2022/06/01 11:36:52;;;;;;;2.00;1.50;;;;;;;24.30;30.96;99366.56;4992577;28;20041;-81
2022/06/01 11:39:37;;;;;;;2.67;1.60;;;;;;;24.19;30.91;99360.75;4992375;28;20124;-81
2022/06/01 11:42:23;;;;;;;3.60;1.70;;;;;;;24.28;30.64;99357.13;4992819;28;20276;-81
2022/06/01 11:45:02;;;;;;;1.75;1.45;;;;;;;24.30;30.84;99360.44;4992796;28;20027;-81
2022/06/01 11:47:35;;;;;;;1.80;1.23;;;;;;;24.44;30.82;99359.81;4976023;28;20097;-81
2022/06/01 11:50:04;;;;;;;1.42;1.33;;;;;;;24.51;30.89;99351.97;4992558;28;20026;-81
2022/06/01 11:52:41;;;;;;;2.55;1.45;;;;;;;24.55;30.78;99367.44;4992490;28;20034;-81
2022/06/01 11:55:15;;;;;;;3.67;1.45;;;;;;;24.50;30.29;99355.63;5045362;28;20052;-81
2022/06/01 11:57:43;;;;;;;1.40;1.30;;;;;;;24.47;28.85;99355.97;5053945;28;20032;-81
2022/06/01 12:00:21;;;;;;;2.17;1.50;;;;;;;24.39;29.12;99354.13;5036393;28;20441;-81
2022/06/01 12:02:50;;;;;;;1.52;1.40;;;;;;;24.31;29.20;99351.44;5036386;28;20029;-81
2022/06/01 12:05:29;;;;;;;1.30;1.20;;;;;;;24.34;29.67;99353.78;5036365;28;20373;-81
2022/06/01 12:08:02;;;;;;;1.50;1.40;;;;;;;24.32;29.29;99345.13;5036162;28;20120;-81
2022/06/01 12:10:29;;;;;;;1.42;1.25;;;;;;;24.33;29.28;99344.97;5053722;28;20144;-82
2022/06/01 12:12:54;;;;;;;1.88;1.50;;;;;;;24.47;29.28;99351.47;5036301;28;20059;-81